createdAt,value
2022-08-08T00:00:53.876Z,4.20
2022-08-08T00:03:19.782Z,5.60
2022-08-08T00:06:03.956Z,3.90
2022-08-08T00:08:50.788Z,4.90
2022-08-08T00:11:46.150Z,4.40
2022-08-08T00:15:00.028Z,3.70
2022-08-08T00:18:02.605Z,8.20
2022-08-08T00:20:37.188Z,5.70
2022-08-08T00:23:09.903Z,4.70
2022-08-08T00:25:46.342Z,3.70
2022-08-08T00:28:35.665Z,4.00
2022-08-08T00:32:28.513Z,3.20
2022-08-08T00:34:59.765Z,4.90
2022-08-08T00:37:48.345Z,4.30
2022-08-08T00:41:10.465Z,3.80
2022-08-08T00:43:56.341Z,3.40
2022-08-08T00:46:57.820Z,3.90
2022-08-08T00:50:03.851Z,3.90
2022-08-08T00:53:03.099Z,3.80
2022-08-08T00:55:55.870Z,6.20
2022-08-08T00:58:54.705Z,6.50
2022-08-08T01:01:44.165Z,5.60
2022-08-08T01:04:49.533Z,5.20
2022-08-08T01:07:56.211Z,3.20
2022-08-08T01:10:42.144Z,3.90
2022-08-08T01:13:52.940Z,4.20
2022-08-08T01:17:01.623Z,4.90
2022-08-08T01:20:02.680Z,3.20
2022-08-08T01:22:59.733Z,6.90
2022-08-08T01:25:43.502Z,3.70
2022-08-08T01:28:38.994Z,4.30
2022-08-08T01:32:15.602Z,3.50
2022-08-08T01:35:12.917Z,4.20
2022-08-08T01:38:16.537Z,4.60
2022-08-08T01:40:54.096Z,3.90
2022-08-08T01:43:34.670Z,4.40
2022-08-08T01:46:27.192Z,5.00
2022-08-08T01:49:31.107Z,4.50
2022-08-08T01:52:57.410Z,4.40
2022-08-08T01:56:29.261Z,4.60
2022-08-08T01:58:32.260Z,5.70
2022-08-08T02:01:28.133Z,5.10
2022-08-08T02:05:04.273Z,3.90
2022-08-08T02:07:49.660Z,4.50
2022-08-08T02:13:54.120Z,3.60
2022-08-08T02:16:34.141Z,3.30
2022-08-08T02:19:41.560Z,3.20
2022-08-08T02:22:31.335Z,3.00
2022-08-08T02:25:22.800Z,4.10
2022-08-08T02:28:05.991Z,6.40
2022-08-08T02:31:24.568Z,4.60
2022-08-08T02:34:33.166Z,8.00
2022-08-08T02:37:52.196Z,3.40
2022-08-08T02:40:25.821Z,6.80
2022-08-08T02:44:38.904Z,9.70
2022-08-08T02:46:24.201Z,20.20
2022-08-08T02:49:13.375Z,11.70
2022-08-08T02:52:00.381Z,6.40
2022-08-08T02:55:05.780Z,8.60
2022-08-08T02:58:19.972Z,7.90
2022-08-08T03:01:24.857Z,9.10
2022-08-08T03:05:04.335Z,7.40
2022-08-08T03:06:49.837Z,8.40
2022-08-08T03:09:54.888Z,7.20
2022-08-08T03:13:01.728Z,6.40
2022-08-08T03:16:05.571Z,8.00
2022-08-08T03:19:13.931Z,7.80
2022-08-08T03:21:58.210Z,4.50
2022-08-08T03:24:28.939Z,6.20
2022-08-08T03:27:12.524Z,6.70
2022-08-08T03:29:54.706Z,9.70
2022-08-08T03:32:56.913Z,9.90
2022-08-08T03:35:30.322Z,5.60
2022-08-08T03:38:58.299Z,7.00
2022-08-08T03:40:52.189Z,7.00
2022-08-08T03:43:20.595Z,7.10
2022-08-08T03:46:05.443Z,8.90
2022-08-08T03:49:08.861Z,9.90
2022-08-08T03:51:40.412Z,5.80
2022-08-08T03:54:09.418Z,7.80
2022-08-08T03:56:36.998Z,9.20
2022-08-08T03:59:04.114Z,6.70
2022-08-08T04:02:02.397Z,6.80
2022-08-08T04:04:30.566Z,4.90
2022-08-08T04:07:00.914Z,7.30
2022-08-08T04:09:59.869Z,9.60
2022-08-08T04:12:17.983Z,5.60
2022-08-08T04:14:46.507Z,3.90
2022-08-08T04:17:45.839Z,4.90
2022-08-08T04:20:05.509Z,5.20
2022-08-08T04:22:38.944Z,4.60
2022-08-08T04:25:07.453Z,5.00
2022-08-08T04:28:01.614Z,4.80
2022-08-08T04:30:27.719Z,5.90
2022-08-08T04:32:55.338Z,4.40
2022-08-08T04:35:26.592Z,6.60
2022-08-08T04:37:56.564Z,7.00
2022-08-08T04:40:38.176Z,6.80
2022-08-08T04:43:05.566Z,6.10
2022-08-08T04:45:39.253Z,4.00
2022-08-08T04:48:09.049Z,2.50
2022-08-08T04:50:38.922Z,4.70
2022-08-08T04:54:36.619Z,10.00
2022-08-08T04:56:06.342Z,7.20
2022-08-08T04:58:34.493Z,9.70
2022-08-08T05:01:09.151Z,5.00
2022-08-08T05:04:09.362Z,5.70
2022-08-08T05:06:39.184Z,5.20
2022-08-08T05:09:07.270Z,7.80
2022-08-08T05:11:40.614Z,6.60
2022-08-08T05:14:12.038Z,5.70
2022-08-08T05:16:55.641Z,4.90
2022-08-08T05:20:09.692Z,5.40
2022-08-08T05:22:18.141Z,4.10
2022-08-08T05:24:50.015Z,5.40
2022-08-08T05:27:19.624Z,6.10
2022-08-08T05:29:51.755Z,5.20
2022-08-08T05:32:19.577Z,5.70
2022-08-08T05:34:53.332Z,4.30
2022-08-08T05:37:39.117Z,4.10
2022-08-08T05:40:16.579Z,4.80
2022-08-08T05:42:49.295Z,5.60
2022-08-08T05:45:25.227Z,6.30
2022-08-08T05:48:08.554Z,8.50
2022-08-08T05:50:38.975Z,7.40
2022-08-08T05:53:54.550Z,6.00
2022-08-08T05:56:09.676Z,6.30
2022-08-08T05:58:57.756Z,8.00
2022-08-08T06:01:56.142Z,10.10
2022-08-08T06:04:25.183Z,9.40
2022-08-08T06:07:01.583Z,6.30
2022-08-08T06:10:00.402Z,7.60
2022-08-08T06:12:29.625Z,9.40
2022-08-08T06:15:06.570Z,11.30
2022-08-08T06:18:18.154Z,8.00
2022-08-08T06:20:27.290Z,9.60
2022-08-08T06:22:56.378Z,9.70
2022-08-08T06:26:34.754Z,5.90
2022-08-08T06:28:41.204Z,4.20
2022-08-08T06:31:15.661Z,9.90
2022-08-08T06:34:25.688Z,9.50
2022-08-08T06:36:53.314Z,5.60
2022-08-08T06:39:22.101Z,4.30
2022-08-08T06:41:54.322Z,4.00
2022-08-08T06:44:25.383Z,5.80
2022-08-08T06:46:56.048Z,7.10
2022-08-08T06:49:56.421Z,6.20
2022-08-08T06:52:10.378Z,5.00
2022-08-08T06:54:48.921Z,5.10
2022-08-08T06:57:16.022Z,11.10
2022-08-08T07:00:01.674Z,11.00
2022-08-08T07:02:34.277Z,5.30
2022-08-08T07:05:11.714Z,6.50
2022-08-08T07:07:49.456Z,2.50
2022-08-08T07:10:23.689Z,3.10
2022-08-08T07:13:00.962Z,3.80
2022-08-08T07:16:04.736Z,3.20
2022-08-08T07:18:46.056Z,3.10
2022-08-08T07:21:22.550Z,3.80
2022-08-08T07:24:09.863Z,3.20
2022-08-08T07:26:55.384Z,5.10
2022-08-08T07:30:02.020Z,5.60
2022-08-08T07:32:15.630Z,4.30
2022-08-08T07:34:59.427Z,3.40
2022-08-08T07:37:55.445Z,3.00
2022-08-08T07:40:29.737Z,3.00
2022-08-08T07:43:14.782Z,3.30
2022-08-08T07:46:17.396Z,4.30
2022-08-08T07:48:39.701Z,4.50
2022-08-08T07:51:24.434Z,3.40
2022-08-08T07:54:26.818Z,6.00
2022-08-08T07:57:28.291Z,3.60
2022-08-08T08:00:05.022Z,6.80
2022-08-08T08:02:59.803Z,2.40
2022-08-08T08:05:33.398Z,3.40
2022-08-08T08:10:35.793Z,2.60
2022-08-08T08:13:25.525Z,3.20
2022-08-08T08:16:18.045Z,5.10
2022-08-08T08:18:56.031Z,3.40
2022-08-08T08:21:44.098Z,5.10
2022-08-08T08:24:20.533Z,2.30
2022-08-08T08:27:02.830Z,6.00
2022-08-08T08:29:30.454Z,2.60
2022-08-08T08:31:59.282Z,3.90
2022-08-08T08:34:32.343Z,3.70
2022-08-08T08:37:08.041Z,3.50
2022-08-08T08:40:01.368Z,1.80
2022-08-08T08:42:32.091Z,1.70
2022-08-08T08:45:21.914Z,1.60
2022-08-08T08:47:54.439Z,4.10
2022-08-08T08:50:32.951Z,1.80
2022-08-08T08:53:55.138Z,1.50
2022-08-08T08:55:56.081Z,1.60
2022-08-08T08:58:43.166Z,2.90
2022-08-08T09:01:19.010Z,1.90
2022-08-08T09:03:51.146Z,2.30
2022-08-08T09:06:34.332Z,2.30
2022-08-08T09:09:35.235Z,1.50
2022-08-08T09:12:26.002Z,2.40
2022-08-08T09:14:57.023Z,1.90
2022-08-08T09:17:40.872Z,1.60
2022-08-08T09:21:59.113Z,1.40
2022-08-08T09:22:59.067Z,2.30
2022-08-08T09:25:36.233Z,1.90
2022-08-08T09:28:35.610Z,1.90
2022-08-08T09:31:13.416Z,1.70
2022-08-08T09:34:15.193Z,1.10
2022-08-08T09:36:35.898Z,0.70
2022-08-08T09:39:10.124Z,1.00
2022-08-08T09:41:54.867Z,2.90
2022-08-08T09:44:48.459Z,1.90
2022-08-08T09:48:02.035Z,2.60
2022-08-08T09:50:14.041Z,3.50
2022-08-08T09:52:57.572Z,1.50
2022-08-08T09:55:51.909Z,2.00
2022-08-08T09:58:27.675Z,2.70
2022-08-08T10:01:59.046Z,2.50
2022-08-08T10:04:38.263Z,0.80
2022-08-08T10:07:07.432Z,0.60
2022-08-08T10:09:59.747Z,1.90
2022-08-08T10:12:52.873Z,1.40
2022-08-08T10:15:22.395Z,1.60
2022-08-08T10:17:56.357Z,3.30
2022-08-08T10:20:51.402Z,1.30
2022-08-08T10:23:44.826Z,1.00
2022-08-08T10:26:29.775Z,1.30
2022-08-08T10:29:06.730Z,2.20
2022-08-08T10:31:55.996Z,2.60
2022-08-08T10:34:24.401Z,2.40
2022-08-08T10:36:55.833Z,2.50
2022-08-08T10:39:55.560Z,1.40
2022-08-08T10:42:34.388Z,3.10
2022-08-08T10:45:08.061Z,4.00
2022-08-08T10:47:43.707Z,1.10
2022-08-08T10:50:15.351Z,1.50
2022-08-08T10:52:43.091Z,2.20
2022-08-08T10:55:15.454Z,1.70
2022-08-08T10:58:03.476Z,2.90
2022-08-08T11:00:39.266Z,2.70
2022-08-08T11:03:37.156Z,2.70
2022-08-08T11:06:12.729Z,2.10
2022-08-08T11:11:59.654Z,1.50
2022-08-08T11:14:15.821Z,1.60
2022-08-08T11:16:46.888Z,2.40
2022-08-08T11:19:17.280Z,1.60
2022-08-08T11:21:54.245Z,2.30
2022-08-08T11:24:26.808Z,1.70
2022-08-08T11:26:57.940Z,1.00
2022-08-08T11:29:41.376Z,2.80
2022-08-08T11:32:17.113Z,1.50
2022-08-08T11:35:08.987Z,1.40
2022-08-08T11:38:37.247Z,1.50
2022-08-08T11:40:26.956Z,1.60
2022-08-08T11:43:00.066Z,3.50
2022-08-08T11:45:29.748Z,2.30
2022-08-08T11:48:05.465Z,2.10
2022-08-08T11:50:37.124Z,2.20
2022-08-08T11:53:06.296Z,2.00
2022-08-08T11:55:35.448Z,2.80
2022-08-08T11:58:14.357Z,2.60
2022-08-08T12:00:47.052Z,5.00
2022-08-08T12:03:30.458Z,3.70
2022-08-08T12:08:35.595Z,2.30
2022-08-08T12:11:09.196Z,4.10
2022-08-08T12:14:02.790Z,2.70
2022-08-08T12:16:30.282Z,1.30
2022-08-08T12:19:00.785Z,1.50
2022-08-08T12:21:59.245Z,2.30
2022-08-08T12:24:27.908Z,4.50
2022-08-08T12:26:57.156Z,1.60
2022-08-08T12:29:42.127Z,3.70
2022-08-08T12:32:19.558Z,2.40
2022-08-08T12:35:13.387Z,3.20
2022-08-08T12:38:01.632Z,1.80
2022-08-08T12:40:56.278Z,2.50
2022-08-08T12:43:46.325Z,2.80
2022-08-08T12:46:25.299Z,3.70
2022-08-08T12:51:50.210Z,1.50
2022-08-08T12:54:25.465Z,1.60
2022-08-08T12:56:53.151Z,1.00
2022-08-08T13:00:04.729Z,0.90
2022-08-08T13:02:42.184Z,3.80
2022-08-08T13:05:27.071Z,3.20
2022-08-08T13:08:20.702Z,0.90
2022-08-08T13:10:56.675Z,3.70
2022-08-08T13:13:34.990Z,3.40
2022-08-08T13:16:21.810Z,1.60
2022-08-08T13:19:01.626Z,2.60
2022-08-08T13:24:42.526Z,2.40
2022-08-08T13:27:20.047Z,1.50
2022-08-08T13:30:26.419Z,1.20
2022-08-08T13:33:00.685Z,1.60
2022-08-08T13:35:40.508Z,1.20
2022-08-08T13:38:13.674Z,2.40
2022-08-08T13:40:45.109Z,2.80
2022-08-08T13:43:16.246Z,2.80
2022-08-08T13:45:47.535Z,1.60
2022-08-08T13:48:17.330Z,2.40
2022-08-08T13:50:56.863Z,2.10
2022-08-08T13:53:33.809Z,2.00
2022-08-08T13:56:06.530Z,3.10
2022-08-08T13:58:57.399Z,3.70
2022-08-08T14:01:42.280Z,3.50
2022-08-08T14:04:21.873Z,2.30
2022-08-08T14:06:48.689Z,1.70
2022-08-08T14:09:24.611Z,2.40
2022-08-08T14:11:59.806Z,2.00
2022-08-08T14:14:42.251Z,3.00
2022-08-08T14:17:22.138Z,2.70
2022-08-08T14:20:06.278Z,3.40
2022-08-08T14:22:38.089Z,2.20
2022-08-08T14:25:15.527Z,3.10
2022-08-08T14:27:59.743Z,2.40
2022-08-08T14:30:33.926Z,1.90
2022-08-08T14:33:01.383Z,2.80
2022-08-08T14:35:35.817Z,1.20
2022-08-08T14:38:34.801Z,1.80
2022-08-08T14:40:59.254Z,1.00
2022-08-08T14:44:02.702Z,1.10
2022-08-08T14:46:30.990Z,6.40
2022-08-08T14:49:09.589Z,3.70
2022-08-08T14:51:53.076Z,2.00
2022-08-08T14:54:29.037Z,1.70
2022-08-08T14:56:58.685Z,3.00
2022-08-08T14:59:50.018Z,2.80
2022-08-08T15:02:22.723Z,1.60
2022-08-08T15:04:53.612Z,0.70
2022-08-08T15:07:24.482Z,1.60
2022-08-08T15:10:05.605Z,1.20
2022-08-08T15:12:36.250Z,2.40
2022-08-08T15:15:06.606Z,1.90
2022-08-08T15:17:36.653Z,2.70
2022-08-08T15:20:10.696Z,2.10
2022-08-08T15:22:44.660Z,1.40
2022-08-08T15:25:18.079Z,4.00
2022-08-08T15:30:32.730Z,1.60
2022-08-08T15:32:59.159Z,1.60
2022-08-08T15:35:27.819Z,5.40
2022-08-08T15:37:56.383Z,2.30
2022-08-08T15:40:23.265Z,4.30
2022-08-08T15:42:55.398Z,2.90
2022-08-08T15:45:22.904Z,1.20
2022-08-08T15:48:04.116Z,3.10
2022-08-08T15:50:58.382Z,2.70
2022-08-08T15:53:27.716Z,1.00
2022-08-08T15:56:01.025Z,3.70
2022-08-08T15:58:28.360Z,2.70
2022-08-08T16:00:58.981Z,2.10
2022-08-08T16:03:25.515Z,4.10
2022-08-08T16:06:01.064Z,1.00
2022-08-08T16:08:28.771Z,1.50
2022-08-08T16:13:09.178Z,1.60
2022-08-08T16:13:45.713Z,2.60
2022-08-08T16:16:17.999Z,2.20
2022-08-08T16:18:56.205Z,1.90
2022-08-08T16:21:31.679Z,1.60
2022-08-08T16:24:05.763Z,1.50
2022-08-08T16:26:36.175Z,4.10
2022-08-08T16:29:16.546Z,4.50
2022-08-08T16:31:49.137Z,5.40
2022-08-08T16:34:20.897Z,1.60
2022-08-08T16:36:51.535Z,1.00
2022-08-08T16:39:59.497Z,1.60
2022-08-08T16:42:07.667Z,1.70
2022-08-08T16:44:53.985Z,3.60
2022-08-08T16:47:40.590Z,2.40
2022-08-08T16:50:14.225Z,3.20
2022-08-08T16:55:01.957Z,5.70
2022-08-08T16:55:55.451Z,3.00
2022-08-08T16:58:29.342Z,4.20
2022-08-08T17:01:06.201Z,3.00
2022-08-08T17:03:58.066Z,3.40
2022-08-08T17:06:36.465Z,2.60
2022-08-08T17:09:06.127Z,5.80
2022-08-08T17:11:38.853Z,6.70
2022-08-08T17:14:18.020Z,1.90
2022-08-08T17:16:57.130Z,2.20
2022-08-08T17:19:26.138Z,3.00
2022-08-08T17:21:53.579Z,2.40
2022-08-08T17:24:27.724Z,2.10
2022-08-08T17:26:54.985Z,4.10
2022-08-08T17:29:25.288Z,2.00
2022-08-08T17:31:52.282Z,1.80
2022-08-08T17:34:48.659Z,5.80
2022-08-08T17:37:06.744Z,7.90
2022-08-08T17:40:04.740Z,7.20
2022-08-08T17:42:31.325Z,5.40
2022-08-08T17:44:59.034Z,9.20
2022-08-08T17:47:37.451Z,8.60
2022-08-08T17:50:05.830Z,6.70
2022-08-08T17:52:34.360Z,6.20
2022-08-08T17:55:05.388Z,5.90
2022-08-08T17:57:36.309Z,5.10
2022-08-08T18:00:13.206Z,11.60
2022-08-08T18:02:52.403Z,6.10
2022-08-08T18:05:43.999Z,8.70
2022-08-08T18:08:37.876Z,10.50
2022-08-08T18:11:15.279Z,9.10
2022-08-08T18:13:44.388Z,8.50
2022-08-08T18:16:20.424Z,7.80
2022-08-08T18:18:56.309Z,6.80
2022-08-08T18:24:21.353Z,7.40
2022-08-08T18:26:54.788Z,4.40
2022-08-08T18:29:29.844Z,6.80
2022-08-08T18:32:03.241Z,6.50
2022-08-08T18:34:32.970Z,15.10
2022-08-08T18:37:02.536Z,13.40
2022-08-08T18:39:34.205Z,21.00
2022-08-08T18:42:04.976Z,43.80
2022-08-08T18:44:34.768Z,33.70
2022-08-08T18:47:03.694Z,27.60
2022-08-08T18:49:32.443Z,30.50
2022-08-08T18:52:22.327Z,18.10
2022-08-08T18:55:00.087Z,21.90
2022-08-08T18:57:44.686Z,18.30
2022-08-08T19:00:20.183Z,21.20
2022-08-08T19:03:08.038Z,10.50
2022-08-08T19:05:43.975Z,4.30
2022-08-08T19:08:25.156Z,6.00
2022-08-08T19:10:58.566Z,8.90
2022-08-08T19:13:47.356Z,4.70
2022-08-08T19:16:19.001Z,4.20
2022-08-08T19:19:00.231Z,7.30
2022-08-08T19:21:32.891Z,7.20
2022-08-08T19:24:05.402Z,5.60
2022-08-08T19:26:34.481Z,5.70
2022-08-08T19:29:22.252Z,3.90
2022-08-08T19:31:50.680Z,5.10
2022-08-08T19:34:29.889Z,5.90
2022-08-08T19:36:59.227Z,7.30
2022-08-08T19:39:30.885Z,7.80
2022-08-08T19:42:07.146Z,5.70
2022-08-08T19:44:45.460Z,9.20
2022-08-08T19:47:14.495Z,6.00
2022-08-08T19:49:43.088Z,7.40
2022-08-08T19:52:11.843Z,7.50
2022-08-08T19:54:40.087Z,11.90
2022-08-08T19:57:10.496Z,7.20
2022-08-08T19:59:43.417Z,6.50
2022-08-08T20:02:11.292Z,9.10
2022-08-08T20:04:39.617Z,5.60
2022-08-08T20:08:29.642Z,9.00
2022-08-08T20:09:59.125Z,8.10
2022-08-08T20:12:32.039Z,6.30
2022-08-08T20:15:14.906Z,6.40
2022-08-08T20:17:46.304Z,7.30
2022-08-08T20:20:15.925Z,6.60
2022-08-08T20:22:46.755Z,5.70
2022-08-08T20:25:20.483Z,10.10
2022-08-08T20:27:50.243Z,8.70
2022-08-08T20:30:53.309Z,6.90
2022-08-08T20:33:20.193Z,5.70
2022-08-08T20:35:59.035Z,6.90
2022-08-08T20:38:32.538Z,9.70
2022-08-08T20:41:05.657Z,7.10
2022-08-08T20:46:20.763Z,5.40
2022-08-08T20:48:50.530Z,7.30
2022-08-08T20:51:20.795Z,9.20
2022-08-08T20:54:00.622Z,6.70
2022-08-08T20:56:34.625Z,6.50
2022-08-08T20:59:09.023Z,6.80
2022-08-08T21:01:44.184Z,6.60
2022-08-08T21:04:23.492Z,7.60
2022-08-08T21:06:54.059Z,7.70
2022-08-08T21:09:21.583Z,7.10
2022-08-08T21:11:50.723Z,8.70
2022-08-08T21:14:18.791Z,5.60
2022-08-08T21:16:57.066Z,5.70
2022-08-08T21:19:26.121Z,4.70
2022-08-08T21:22:01.546Z,6.90
2022-08-08T21:24:30.570Z,7.70
2022-08-08T21:26:58.583Z,5.60
2022-08-08T21:30:05.299Z,7.60
2022-08-08T21:32:14.352Z,8.20
2022-08-08T21:34:51.292Z,7.30
2022-08-08T21:37:23.271Z,6.70
2022-08-08T21:40:10.594Z,10.60
2022-08-08T21:42:39.446Z,8.20
2022-08-08T21:45:44.671Z,9.80
2022-08-08T21:48:19.593Z,8.60
2022-08-08T21:50:42.143Z,5.80
2022-08-08T21:54:33.713Z,7.10
2022-08-08T21:56:19.396Z,6.20
2022-08-08T21:58:43.384Z,7.10
2022-08-08T22:01:27.964Z,5.70
2022-08-08T22:04:06.435Z,8.20
2022-08-08T22:06:32.896Z,6.40
2022-08-08T22:09:02.760Z,4.40
2022-08-08T22:11:58.774Z,7.50
2022-08-08T22:14:21.994Z,4.90
2022-08-08T22:16:53.413Z,6.20
2022-08-08T22:19:23.634Z,7.10
2022-08-08T22:21:51.515Z,7.10
2022-08-08T22:24:18.076Z,6.40
2022-08-08T22:27:01.423Z,8.10
2022-08-08T22:29:59.126Z,5.70
2022-08-08T22:32:18.117Z,8.00
2022-08-08T22:34:50.560Z,7.60
2022-08-08T22:37:49.019Z,13.10
2022-08-08T22:40:07.315Z,8.40
2022-08-08T22:42:39.783Z,6.20
2022-08-08T22:45:12.948Z,5.70
2022-08-08T22:47:47.190Z,9.20
2022-08-08T22:50:26.917Z,8.90
2022-08-08T22:54:27.944Z,9.50
2022-08-08T22:55:58.416Z,9.70
2022-08-08T22:58:31.230Z,9.50
2022-08-08T23:02:00.589Z,9.10
2022-08-08T23:03:56.719Z,9.30
2022-08-08T23:06:26.416Z,6.90
2022-08-08T23:08:55.965Z,7.40
2022-08-08T23:11:57.995Z,11.10
2022-08-08T23:14:20.490Z,9.50
2022-08-08T23:16:53.287Z,7.30
2022-08-08T23:19:26.527Z,8.00
2022-08-08T23:21:53.143Z,6.30
2022-08-08T23:24:22.906Z,7.50
2022-08-08T23:26:53.470Z,7.60
2022-08-08T23:29:24.539Z,6.80
2022-08-08T23:31:54.297Z,8.70
2022-08-08T23:34:21.938Z,7.70
2022-08-08T23:36:56.611Z,6.60
2022-08-08T23:39:41.508Z,7.50
2022-08-08T23:42:16.165Z,9.00
2022-08-08T23:44:42.766Z,10.30
2022-08-08T23:49:01.630Z,7.80
2022-08-08T23:50:03.078Z,7.70
2022-08-08T23:52:33.882Z,8.60
2022-08-08T23:55:14.318Z,8.90
2022-08-08T23:57:53.158Z,10.10
